sensor_id;sensor_type;location;lat;lon;timestamp;pressure;altitude;pressure_sealevel;temperature;humidity
61357;BME280;47227;46.752;23.576;2023-02-26T00:01:44;95066.27;;;2.86;77.46
61357;BME280;47227;46.752;23.576;2023-02-26T00:04:13;95067.80;;;2.83;77.75
61357;BME280;47227;46.752;23.576;2023-02-26T00:06:41;95064.85;;;2.83;77.76
61357;BME280;47227;46.752;23.576;2023-02-26T00:09:23;95062.35;;;2.77;78.36
61357;BME280;47227;46.752;23.576;2023-02-26T00:11:53;95064.11;;;2.80;77.63
61357;BME280;47227;46.752;23.576;2023-02-26T00:14:22;95060.34;;;2.83;77.56
61357;BME280;47227;46.752;23.576;2023-02-26T00:19:44;95059.06;;;2.78;79.33
61357;BME280;47227;46.752;23.576;2023-02-26T00:22:13;95055.98;;;2.75;79.55
61357;BME280;47227;46.752;23.576;2023-02-26T00:24:41;95048.17;;;2.73;79.69
61357;BME280;47227;46.752;23.576;2023-02-26T00:27:10;95047.16;;;2.72;78.86
61357;BME280;47227;46.752;23.576;2023-02-26T00:29:39;95052.36;;;2.70;78.53
61357;BME280;47227;46.752;23.576;2023-02-26T00:32:08;95050.64;;;2.69;78.56
61357;BME280;47227;46.752;23.576;2023-02-26T00:34:37;95054.08;;;2.68;78.71
61357;BME280;47227;46.752;23.576;2023-02-26T00:37:16;95049.04;;;2.65;78.71
61357;BME280;47227;46.752;23.576;2023-02-26T00:40:01;95054.34;;;2.63;78.63
61357;BME280;47227;46.752;23.576;2023-02-26T00:42:33;95062.94;;;2.61;78.64
61357;BME280;47227;46.752;23.576;2023-02-26T00:45:02;95066.19;;;2.57;78.65
61357;BME280;47227;46.752;23.576;2023-02-26T00:47:54;95070.95;;;2.55;78.66
61357;BME280;47227;46.752;23.576;2023-02-26T00:50:26;95075.41;;;2.53;78.76
61357;BME280;47227;46.752;23.576;2023-02-26T00:53:16;95078.59;;;2.52;79.01
61357;BME280;47227;46.752;23.576;2023-02-26T00:55:53;95083.69;;;2.49;79.87
61357;BME280;47227;46.752;23.576;2023-02-26T00:58:21;95079.13;;;2.46;79.80
61357;BME280;47227;46.752;23.576;2023-02-26T01:00:52;95081.52;;;2.44;79.62
61357;BME280;47227;46.752;23.576;2023-02-26T01:03:22;95083.45;;;2.42;79.84
61357;BME280;47227;46.752;23.576;2023-02-26T01:05:50;95091.10;;;2.39;80.37
61357;BME280;47227;46.752;23.576;2023-02-26T01:08:27;95090.27;;;2.40;80.39
61357;BME280;47227;46.752;23.576;2023-02-26T01:10:59;95083.78;;;2.41;81.13
61357;BME280;47227;46.752;23.576;2023-02-26T01:13:27;95076.10;;;2.42;81.93
61357;BME280;47227;46.752;23.576;2023-02-26T01:16:02;95077.82;;;2.45;81.72
61357;BME280;47227;46.752;23.576;2023-02-26T01:18:44;95069.98;;;2.49;81.83
61357;BME280;47227;46.752;23.576;2023-02-26T01:21:21;95062.02;;;2.49;81.48
61357;BME280;47227;46.752;23.576;2023-02-26T01:23:52;95059.02;;;2.51;81.10
61357;BME280;47227;46.752;23.576;2023-02-26T01:26:25;95054.71;;;2.53;81.19
61357;BME280;47227;46.752;23.576;2023-02-26T01:28:57;95050.34;;;2.52;81.29
61357;BME280;47227;46.752;23.576;2023-02-26T01:31:47;95049.30;;;2.50;81.33
61357;BME280;47227;46.752;23.576;2023-02-26T01:34:25;95047.48;;;2.50;81.23
61357;BME280;47227;46.752;23.576;2023-02-26T01:37:07;95051.40;;;2.46;81.15
61357;BME280;47227;46.752;23.576;2023-02-26T01:39:46;95051.58;;;2.43;81.11
61357;BME280;47227;46.752;23.576;2023-02-26T01:42:30;95050.52;;;2.40;80.91
61357;BME280;47227;46.752;23.576;2023-02-26T01:45:10;95051.74;;;2.36;80.88
61357;BME280;47227;46.752;23.576;2023-02-26T01:47:53;95047.58;;;2.30;80.67
61357;BME280;47227;46.752;23.576;2023-02-26T01:50:25;95048.88;;;2.24;80.50
61357;BME280;47227;46.752;23.576;2023-02-26T01:53:19;95042.45;;;2.18;80.55
61357;BME280;47227;46.752;23.576;2023-02-26T01:55:57;95041.79;;;2.12;80.79
61357;BME280;47227;46.752;23.576;2023-02-26T01:58:31;95027.19;;;2.02;81.72
61357;BME280;47227;46.752;23.576;2023-02-26T02:01:08;95028.99;;;1.91;82.65
61357;BME280;47227;46.752;23.576;2023-02-26T02:03:46;95034.79;;;1.84;82.46
61357;BME280;47227;46.752;23.576;2023-02-26T02:06:21;95035.63;;;1.78;82.19
61357;BME280;47227;46.752;23.576;2023-02-26T02:08:55;95040.13;;;1.76;81.80
61357;BME280;47227;46.752;23.576;2023-02-26T02:11:25;95043.45;;;1.75;82.11
61357;BME280;47227;46.752;23.576;2023-02-26T02:14:17;95042.99;;;1.70;82.73
61357;BME280;47227;46.752;23.576;2023-02-26T02:17:08;95050.96;;;1.55;85.99
61357;BME280;47227;46.752;23.576;2023-02-26T02:22:50;95068.33;;;1.50;84.94
61357;BME280;47227;46.752;23.576;2023-02-26T02:28:48;95070.56;;;1.37;86.85
61357;BME280;47227;46.752;23.576;2023-02-26T02:31:36;95063.33;;;1.28;88.57
61357;BME280;47227;46.752;23.576;2023-02-26T02:34:18;95066.30;;;1.25;88.85
61357;BME280;47227;46.752;23.576;2023-02-26T02:37:01;95069.16;;;1.30;86.99
61357;BME280;47227;46.752;23.576;2023-02-26T02:39:43;95073.38;;;1.35;86.14
61357;BME280;47227;46.752;23.576;2023-02-26T02:42:27;95074.55;;;1.39;85.77
61357;BME280;47227;46.752;23.576;2023-02-26T02:45:04;95076.95;;;1.44;85.52
61357;BME280;47227;46.752;23.576;2023-02-26T02:47:37;95074.98;;;1.49;85.43
61357;BME280;47227;46.752;23.576;2023-02-26T02:50:49;95077.20;;;1.53;85.41
61357;BME280;47227;46.752;23.576;2023-02-26T02:53:24;95075.36;;;1.56;85.22
61357;BME280;47227;46.752;23.576;2023-02-26T02:56:20;95075.26;;;1.58;85.00
61357;BME280;47227;46.752;23.576;2023-02-26T02:59:03;95072.09;;;1.60;84.95
61357;BME280;47227;46.752;23.576;2023-02-26T03:01:42;95072.97;;;1.68;85.05
61357;BME280;47227;46.752;23.576;2023-02-26T03:04:16;95073.55;;;1.77;85.19
61357;BME280;47227;46.752;23.576;2023-02-26T03:06:52;95066.05;;;1.84;85.04
61357;BME280;47227;46.752;23.576;2023-02-26T03:09:41;95059.70;;;1.84;84.63
61357;BME280;47227;46.752;23.576;2023-02-26T03:12:13;95055.65;;;1.83;84.70
61357;BME280;47227;46.752;23.576;2023-02-26T03:14:44;95059.65;;;1.84;84.63
61357;BME280;47227;46.752;23.576;2023-02-26T03:17:31;95056.60;;;1.82;84.82
61357;BME280;47227;46.752;23.576;2023-02-26T03:20:24;95065.42;;;1.74;85.84
61357;BME280;47227;46.752;23.576;2023-02-26T03:23:08;95071.21;;;1.68;85.61
61357;BME280;47227;46.752;23.576;2023-02-26T03:25:50;95080.93;;;1.64;85.85
61357;BME280;47227;46.752;23.576;2023-02-26T03:28:43;95085.98;;;1.59;85.68
61357;BME280;47227;46.752;23.576;2023-02-26T03:31:36;95078.42;;;1.53;85.56
61357;BME280;47227;46.752;23.576;2023-02-26T03:34:20;95073.89;;;1.41;87.13
61357;BME280;47227;46.752;23.576;2023-02-26T03:37:22;95081.60;;;1.32;87.37
61357;BME280;47227;46.752;23.576;2023-02-26T03:40:02;95081.51;;;1.24;88.07
61357;BME280;47227;46.752;23.576;2023-02-26T03:42:40;95086.39;;;1.17;88.16
61357;BME280;47227;46.752;23.576;2023-02-26T03:45:16;95089.58;;;1.13;88.12
61357;BME280;47227;46.752;23.576;2023-02-26T03:47:50;95087.33;;;1.12;88.26
61357;BME280;47227;46.752;23.576;2023-02-26T03:50:45;95088.95;;;1.09;89.97
61357;BME280;47227;46.752;23.576;2023-02-26T03:53:43;95089.61;;;1.07;90.43
61357;BME280;47227;46.752;23.576;2023-02-26T03:56:28;95088.09;;;1.00;90.49
61357;BME280;47227;46.752;23.576;2023-02-26T03:59:13;95082.13;;;0.94;90.54
61357;BME280;47227;46.752;23.576;2023-02-26T04:02:12;95090.00;;;0.93;90.25
61357;BME280;47227;46.752;23.576;2023-02-26T04:04:47;95091.13;;;0.92;90.63
61357;BME280;47227;46.752;23.576;2023-02-26T04:07:17;95089.87;;;0.94;89.79
61357;BME280;47227;46.752;23.576;2023-02-26T04:09:48;95091.40;;;0.93;90.21
61357;BME280;47227;46.752;23.576;2023-02-26T04:12:25;95090.55;;;0.94;90.29
61357;BME280;47227;46.752;23.576;2023-02-26T04:14:59;95084.50;;;0.98;89.93
61357;BME280;47227;46.752;23.576;2023-02-26T04:17:27;95080.98;;;1.00;89.78
61357;BME280;47227;46.752;23.576;2023-02-26T04:20:36;95075.75;;;0.99;90.08
61357;BME280;47227;46.752;23.576;2023-02-26T04:23:18;95074.98;;;1.02;90.23
61357;BME280;47227;46.752;23.576;2023-02-26T04:26:06;95076.81;;;1.05;90.77
61357;BME280;47227;46.752;23.576;2023-02-26T04:28:39;95072.54;;;1.02;90.81
61357;BME280;47227;46.752;23.576;2023-02-26T04:31:19;95075.63;;;1.03;90.71
61357;BME280;47227;46.752;23.576;2023-02-26T04:33:48;95079.52;;;1.10;90.53
61357;BME280;47227;46.752;23.576;2023-02-26T04:36:17;95077.16;;;1.17;89.90
61357;BME280;47227;46.752;23.576;2023-02-26T04:38:46;95073.23;;;1.20;89.48
61357;BME280;47227;46.752;23.576;2023-02-26T04:41:16;95069.60;;;1.25;89.27
61357;BME280;47227;46.752;23.576;2023-02-26T04:43:45;95075.27;;;1.28;88.72
61357;BME280;47227;46.752;23.576;2023-02-26T04:46:28;95075.72;;;1.26;88.30
61357;BME280;47227;46.752;23.576;2023-02-26T04:48:57;95066.87;;;1.25;88.44
61357;BME280;47227;46.752;23.576;2023-02-26T04:51:27;95066.88;;;1.24;88.01
61357;BME280;47227;46.752;23.576;2023-02-26T04:53:56;95073.80;;;1.22;88.02
61357;BME280;47227;46.752;23.576;2023-02-26T04:56:25;95078.42;;;1.19;87.91
61357;BME280;47227;46.752;23.576;2023-02-26T04:58:53;95087.75;;;1.13;88.38
61357;BME280;47227;46.752;23.576;2023-02-26T05:01:40;95085.67;;;1.01;89.35
61357;BME280;47227;46.752;23.576;2023-02-26T05:32:06;95106.21;;;0.53;92.94
61357;BME280;47227;46.752;23.576;2023-02-26T05:34:38;95101.48;;;0.54;92.74
61357;BME280;47227;46.752;23.576;2023-02-26T05:37:07;95104.67;;;0.56;92.17
61357;BME280;47227;46.752;23.576;2023-02-26T05:39:34;95109.04;;;0.56;92.29
61357;BME280;47227;46.752;23.576;2023-02-26T05:42:03;95114.80;;;0.56;92.54
61357;BME280;47227;46.752;23.576;2023-02-26T05:44:31;95115.23;;;0.56;92.77
61357;BME280;47227;46.752;23.576;2023-02-26T08:05:47;95188.40;;;1.59;88.22
61357;BME280;47227;46.752;23.576;2023-02-26T08:09:54;95187.05;;;1.64;88.00
61357;BME280;47227;46.752;23.576;2023-02-26T09:57:29;95267.21;;;2.40;83.68
61357;BME280;47227;46.752;23.576;2023-02-26T15:28:56;95554.49;;;0.53;89.05
61357;BME280;47227;46.752;23.576;2023-02-26T16:02:44;95596.18;;;0.49;89.97
61357;BME280;47227;46.752;23.576;2023-02-26T16:38:47;95647.51;;;0.32;90.12
61357;BME280;47227;46.752;23.576;2023-02-26T16:45:42;95649.33;;;0.22;90.23
61357;BME280;47227;46.752;23.576;2023-02-26T16:48:46;95656.23;;;0.19;90.24
61357;BME280;47227;46.752;23.576;2023-02-26T16:54:57;95668.95;;;0.21;90.00
61357;BME280;47227;46.752;23.576;2023-02-26T16:58:13;95665.03;;;0.25;90.20
61357;BME280;47227;46.752;23.576;2023-02-26T17:07:59;95649.92;;;0.36;90.34
61357;BME280;47227;46.752;23.576;2023-02-26T17:11:21;95651.31;;;0.30;91.39
61357;BME280;47227;46.752;23.576;2023-02-26T17:14:21;95653.38;;;0.31;90.90
61357;BME280;47227;46.752;23.576;2023-02-26T17:17:11;95658.73;;;0.29;91.00
61357;BME280;47227;46.752;23.576;2023-02-26T17:20:03;95661.98;;;0.28;91.08
61357;BME280;47227;46.752;23.576;2023-02-26T17:23:14;95661.39;;;0.23;90.99
61357;BME280;47227;46.752;23.576;2023-02-26T17:26:06;95668.88;;;0.19;90.99
61357;BME280;47227;46.752;23.576;2023-02-26T17:28:55;95666.17;;;0.15;90.71
61357;BME280;47227;46.752;23.576;2023-02-26T17:34:32;95680.42;;;0.15;90.99
61357;BME280;47227;46.752;23.576;2023-02-26T17:37:42;95677.57;;;0.17;91.01
61357;BME280;47227;46.752;23.576;2023-02-26T17:40:41;95675.66;;;0.19;90.83
61357;BME280;47227;46.752;23.576;2023-02-26T17:43:49;95682.23;;;0.24;91.12
61357;BME280;47227;46.752;23.576;2023-02-26T17:47:02;95682.45;;;0.30;90.98
61357;BME280;47227;46.752;23.576;2023-02-26T17:49:40;95685.80;;;0.34;90.87
61357;BME280;47227;46.752;23.576;2023-02-26T17:52:32;95684.48;;;0.38;90.99
61357;BME280;47227;46.752;23.576;2023-02-26T17:55:21;95695.36;;;0.42;91.00
61357;BME280;47227;46.752;23.576;2023-02-26T17:58:14;95698.43;;;0.44;91.09
61357;BME280;47227;46.752;23.576;2023-02-26T18:01:03;95703.18;;;0.44;91.12
61357;BME280;47227;46.752;23.576;2023-02-26T19:03:27;95689.27;;;0.67;91.24
61357;BME280;47227;46.752;23.576;2023-02-26T20:09:55;95717.16;;;0.36;91.08
61357;BME280;47227;46.752;23.576;2023-02-26T20:17:05;95721.18;;;0.25;90.98
61357;BME280;47227;46.752;23.576;2023-02-26T20:19:31;95725.81;;;0.24;90.97
61357;BME280;47227;46.752;23.576;2023-02-26T20:21:58;95721.93;;;0.24;91.09
61357;BME280;47227;46.752;23.576;2023-02-26T20:24:24;95724.79;;;0.26;91.02
61357;BME280;47227;46.752;23.576;2023-02-26T20:26:51;95723.60;;;0.29;90.99
61357;BME280;47227;46.752;23.576;2023-02-26T20:29:18;95726.59;;;0.32;91.04
61357;BME280;47227;46.752;23.576;2023-02-26T23:09:05;95761.13;;;0.23;91.49
61357;BME280;47227;46.752;23.576;2023-02-26T23:11:32;95763.13;;;0.25;91.38
61357;BME280;47227;46.752;23.576;2023-02-26T23:14:12;95760.63;;;0.27;91.26
61357;BME280;47227;46.752;23.576;2023-02-26T23:16:39;95759.72;;;0.31;91.34
61357;BME280;47227;46.752;23.576;2023-02-26T23:19:16;95759.58;;;0.36;91.41
61357;BME280;47227;46.752;23.576;2023-02-26T23:22:03;95759.11;;;0.40;91.28
61357;BME280;47227;46.752;23.576;2023-02-26T23:24:31;95759.91;;;0.43;91.37
61357;BME280;47227;46.752;23.576;2023-02-26T23:26:59;95755.83;;;0.46;91.70
61357;BME280;47227;46.752;23.576;2023-02-26T23:29:29;95757.54;;;0.50;91.64
61357;BME280;47227;46.752;23.576;2023-02-26T23:32:14;95749.24;;;0.54;91.57
61357;BME280;47227;46.752;23.576;2023-02-26T23:34:46;95743.14;;;0.58;91.46
61357;BME280;47227;46.752;23.576;2023-02-26T23:37:33;95744.40;;;0.63;91.55
61357;BME280;47227;46.752;23.576;2023-02-26T23:40:21;95743.89;;;0.69;91.43
61357;BME280;47227;46.752;23.576;2023-02-26T23:42:50;95744.57;;;0.72;91.43
61357;BME280;47227;46.752;23.576;2023-02-26T23:45:37;95745.73;;;0.73;91.48
61357;BME280;47227;46.752;23.576;2023-02-26T23:48:24;95748.83;;;0.75;91.69
61357;BME280;47227;46.752;23.576;2023-02-26T23:51:01;95749.34;;;0.73;91.53
61357;BME280;47227;46.752;23.576;2023-02-26T23:53:48;95756.73;;;0.70;91.42
61357;BME280;47227;46.752;23.576;2023-02-26T23:56:41;95757.39;;;0.63;91.49
61357;BME280;47227;46.752;23.576;2023-02-26T23:59:47;95758.02;;;0.57;91.26
